createdAt,value
2019-02-14T00:00:45.291Z,99.20
2019-02-14T00:03:13.791Z,99.37
2019-02-14T00:05:42.260Z,99.36
2019-02-14T00:08:10.759Z,99.05
2019-02-14T00:10:39.237Z,98.88
2019-02-14T00:13:07.725Z,98.87
2019-02-14T00:15:37.752Z,99.16
2019-02-14T00:18:06.197Z,98.93
2019-02-14T00:20:34.678Z,99.02
2019-02-14T00:23:03.177Z,99.46
2019-02-14T00:25:31.672Z,99.38
2019-02-14T00:28:00.172Z,99.31
2019-02-14T00:30:28.643Z,99.68
2019-02-14T00:32:57.131Z,99.71
2019-02-14T00:35:25.597Z,99.50
2019-02-14T00:37:54.117Z,99.84
2019-02-14T00:40:22.656Z,99.64
2019-02-14T00:42:51.154Z,99.79
2019-02-14T00:45:19.632Z,99.97
2019-02-14T00:47:48.131Z,99.66
2019-02-14T00:50:16.588Z,99.52
2019-02-14T00:52:45.083Z,99.16
2019-02-14T00:55:13.564Z,99.50
2019-02-14T00:57:42.045Z,99.33
2019-02-14T01:00:11.631Z,99.30
2019-02-14T01:02:40.154Z,98.85
2019-02-14T01:05:08.877Z,98.94
2019-02-14T01:07:37.386Z,99.17
2019-02-14T01:10:07.004Z,98.99
2019-02-14T01:12:35.524Z,98.94
2019-02-14T01:15:05.918Z,98.84
2019-02-14T01:17:34.411Z,98.60
2019-02-14T01:20:02.882Z,98.72
2019-02-14T01:22:31.377Z,98.55
2019-02-14T01:24:59.902Z,98.58
2019-02-14T01:27:28.395Z,98.59
2019-02-14T01:29:56.877Z,98.61
2019-02-14T01:32:25.355Z,98.74
2019-02-14T01:34:53.825Z,99.31
2019-02-14T01:37:22.394Z,99.27
2019-02-14T01:39:50.872Z,99.35
2019-02-14T01:42:19.381Z,99.43
2019-02-14T01:44:47.861Z,98.97
2019-02-14T01:47:16.356Z,98.96
2019-02-14T01:49:44.839Z,99.21
2019-02-14T01:52:13.341Z,99.27
2019-02-14T01:54:41.817Z,99.22
2019-02-14T01:57:10.519Z,98.99
2019-02-14T01:59:38.985Z,98.73
2019-02-14T02:02:07.481Z,99.19
2019-02-14T02:04:35.946Z,98.74
2019-02-14T02:07:04.826Z,98.59
2019-02-14T02:09:33.297Z,98.40
2019-02-14T02:12:01.913Z,98.49
2019-02-14T02:14:30.399Z,98.47
2019-02-14T02:16:58.899Z,98.57
2019-02-14T02:19:27.361Z,98.55
2019-02-14T02:21:55.831Z,98.44
2019-02-14T02:24:24.328Z,98.27
2019-02-14T02:26:52.794Z,98.08
2019-02-14T02:29:21.298Z,97.97
2019-02-14T02:31:49.769Z,98.08
2019-02-14T02:34:18.265Z,97.93
2019-02-14T02:36:46.733Z,97.86
2019-02-14T02:39:15.223Z,98.01
2019-02-14T02:41:43.687Z,97.93
2019-02-14T02:44:12.187Z,97.90
2019-02-14T02:46:40.684Z,97.73
2019-02-14T02:49:09.190Z,97.60
2019-02-14T02:51:37.660Z,97.52
2019-02-14T02:54:06.162Z,97.44
2019-02-14T02:56:34.630Z,97.49
2019-02-14T02:59:03.108Z,97.40
2019-02-14T03:01:31.586Z,97.33
2019-02-14T03:04:00.072Z,97.14
2019-02-14T03:06:28.527Z,97.16
2019-02-14T03:08:57.031Z,97.25
2019-02-14T03:11:25.524Z,96.87
2019-02-14T03:13:54.020Z,96.79
2019-02-14T03:16:22.476Z,96.63
2019-02-14T03:18:50.958Z,96.49
2019-02-14T03:21:19.422Z,96.45
2019-02-14T03:23:47.933Z,96.22
2019-02-14T03:26:16.436Z,96.27
2019-02-14T03:28:44.893Z,96.18
2019-02-14T03:31:13.379Z,96.13
2019-02-14T03:33:41.870Z,96.12
2019-02-14T03:36:18.501Z,95.95
2019-02-14T03:38:40.576Z,96.04
2019-02-14T03:41:09.113Z,95.87
2019-02-14T03:43:37.650Z,95.72
2019-02-14T03:46:06.117Z,95.65
2019-02-14T03:48:34.587Z,95.58
2019-02-14T03:51:03.091Z,95.55
2019-02-14T03:53:31.576Z,95.51
2019-02-14T03:56:00.059Z,95.56
2019-02-14T03:58:28.574Z,95.52
2019-02-14T04:00:57.044Z,95.51
2019-02-14T04:03:25.542Z,95.42
2019-02-14T04:05:54.029Z,95.31
2019-02-14T04:08:22.513Z,95.21
2019-02-14T04:10:50.989Z,95.14
2019-02-14T04:13:19.472Z,95.24
2019-02-14T04:15:48.009Z,95.18
2019-02-14T04:18:16.514Z,95.15
2019-02-14T04:20:44.989Z,94.93
2019-02-14T04:23:13.489Z,94.81
2019-02-14T04:25:41.967Z,94.75
2019-02-14T04:28:10.463Z,94.81
2019-02-14T04:30:38.944Z,94.68
2019-02-14T04:33:07.428Z,94.91
2019-02-14T04:35:35.914Z,95.04
2019-02-14T04:38:04.389Z,94.98
2019-02-14T04:40:33.827Z,94.65
2019-02-14T04:43:02.450Z,94.57
2019-02-14T04:45:30.960Z,94.70
2019-02-14T04:47:59.510Z,94.52
2019-02-14T04:50:28.015Z,94.72
2019-02-14T04:53:21.235Z,94.48
2019-02-14T04:56:45.388Z,94.36
2019-02-14T04:59:42.141Z,94.38
2019-02-14T05:02:54.399Z,94.51
2019-02-14T05:05:41.193Z,94.50
2019-02-14T05:08:37.898Z,94.27
2019-02-14T05:11:25.190Z,94.20
2019-02-14T05:14:21.523Z,94.21
2019-02-14T05:17:17.096Z,94.00
2019-02-14T05:20:17.833Z,93.83
2019-02-14T05:23:07.180Z,93.72
2019-02-14T05:26:07.843Z,93.64
2019-02-14T05:29:02.794Z,93.73
2019-02-14T05:35:55.283Z,93.71
2019-02-14T05:39:01.770Z,93.69
2019-02-14T05:42:05.760Z,93.65
2019-02-14T05:45:21.497Z,93.45
2019-02-14T05:48:09.838Z,93.09
2019-02-14T05:50:58.982Z,93.26
2019-02-14T05:53:45.067Z,93.17
2019-02-14T05:56:56.257Z,92.99
2019-02-14T05:59:44.744Z,93.01
2019-02-14T06:02:49.208Z,92.94
2019-02-14T06:06:27.247Z,92.89
2019-02-14T06:09:38.967Z,92.82
2019-02-14T06:15:55.176Z,92.70
2019-02-14T06:18:47.016Z,92.75
2019-02-14T06:21:53.458Z,92.53
2019-02-14T06:24:40.488Z,92.45
2019-02-14T06:31:12.625Z,92.25
2019-02-14T06:37:16.240Z,92.29
2019-02-14T06:40:17.320Z,92.24
2019-02-14T06:43:22.595Z,92.15
2019-02-14T06:52:37.425Z,92.04
2019-02-14T06:55:56.376Z,92.10
2019-02-14T07:01:48.735Z,92.04
2019-02-14T07:14:37.852Z,91.75
2019-02-14T07:17:55.010Z,91.54
2019-02-14T07:36:02.872Z,91.14
2019-02-14T07:38:54.955Z,91.37
2019-02-14T07:41:52.480Z,91.11
2019-02-14T07:48:01.173Z,91.42
2019-02-14T07:50:48.445Z,91.13
2019-02-14T07:53:40.839Z,90.63
2019-02-14T07:56:29.909Z,90.49
2019-02-14T08:06:17.240Z,90.20
2019-02-14T08:09:00.454Z,90.50
2019-02-14T08:11:54.061Z,90.49
2019-02-14T08:14:52.770Z,90.43
2019-02-14T08:17:43.264Z,90.17
2019-02-14T08:20:24.855Z,90.41
2019-02-14T08:28:54.775Z,89.97
2019-02-14T08:31:34.761Z,89.70
2019-02-14T08:37:26.157Z,89.36
2019-02-14T08:40:02.262Z,89.08
2019-02-14T08:42:47.926Z,88.64
2019-02-14T08:45:38.222Z,89.16
2019-02-14T08:48:20.115Z,89.22
2019-02-14T08:50:58.295Z,89.45
2019-02-14T08:53:32.699Z,88.95
2019-02-14T08:56:04.037Z,88.82
2019-02-14T08:58:37.888Z,88.45
2019-02-14T09:01:19.142Z,87.89
2019-02-14T09:04:02.883Z,87.70
2019-02-14T09:06:45.126Z,87.81
2019-02-14T09:09:26.804Z,87.46
2019-02-14T09:12:07.981Z,87.16
2019-02-14T09:14:51.086Z,86.31
2019-02-14T09:17:27.180Z,85.74
2019-02-14T09:20:06.005Z,85.67
2019-02-14T09:22:45.314Z,86.35
2019-02-14T09:25:21.925Z,84.22
2019-02-14T09:28:02.565Z,84.99
2019-02-14T09:30:41.590Z,84.29
2019-02-14T09:33:22.168Z,83.34
2019-02-14T09:36:03.581Z,83.96
2019-02-14T09:38:47.758Z,84.08
2019-02-14T09:41:21.780Z,83.91
2019-02-14T09:43:54.612Z,81.76
2019-02-14T09:46:27.808Z,80.52
2019-02-14T09:49:05.062Z,83.13
2019-02-14T09:51:35.906Z,83.12
2019-02-14T09:54:10.079Z,83.36
2019-02-14T09:56:46.077Z,80.75
2019-02-14T09:59:22.645Z,82.67
2019-02-14T10:01:59.482Z,80.27
2019-02-14T10:07:17.877Z,81.03
2019-02-14T10:09:54.287Z,79.69
2019-02-14T10:12:36.787Z,78.15
2019-02-14T10:15:09.526Z,75.98
2019-02-14T10:17:43.973Z,77.82
2019-02-14T10:20:19.749Z,78.55
2019-02-14T10:22:55.067Z,77.37
2019-02-14T10:25:31.797Z,73.14
2019-02-14T10:28:21.551Z,72.99
2019-02-14T10:30:57.488Z,74.97
2019-02-14T10:33:29.323Z,75.19
2019-02-14T10:36:04.574Z,76.57
2019-02-14T10:38:37.598Z,75.61
2019-02-14T10:41:08.893Z,75.24
2019-02-14T10:44:00.190Z,72.03
2019-02-14T10:46:40.687Z,74.83
2019-02-14T10:49:16.167Z,75.90
2019-02-14T10:51:52.522Z,72.42
2019-02-14T10:54:32.585Z,74.76
2019-02-14T10:57:09.853Z,73.18
2019-02-14T10:59:44.608Z,73.98
2019-02-14T11:02:22.348Z,72.43
2019-02-14T11:04:57.161Z,68.94
2019-02-14T11:07:32.520Z,69.80
2019-02-14T11:10:11.170Z,69.90
2019-02-14T11:15:37.198Z,71.31
2019-02-14T11:21:23.768Z,67.65
2019-02-14T11:24:06.029Z,69.93
2019-02-14T11:26:42.548Z,68.98
2019-02-14T11:29:16.138Z,67.24
2019-02-14T11:31:54.459Z,69.87
2019-02-14T11:34:31.215Z,70.24
2019-02-14T11:40:00.099Z,69.14
2019-02-14T11:43:01.887Z,69.18
2019-02-14T11:45:39.292Z,68.71
2019-02-14T11:48:13.147Z,69.21
2019-02-14T11:50:47.974Z,69.94
2019-02-14T11:53:30.896Z,69.47
2019-02-14T11:56:10.050Z,67.57
2019-02-14T11:58:53.595Z,67.27
2019-02-14T12:01:30.984Z,69.03
2019-02-14T12:04:05.893Z,67.98
2019-02-14T12:06:42.794Z,68.68
2019-02-14T12:09:26.090Z,67.47
2019-02-14T12:12:03.202Z,68.84
2019-02-14T12:14:40.027Z,68.54
2019-02-14T12:17:13.071Z,67.16
2019-02-14T12:19:48.950Z,69.21
2019-02-14T12:22:31.657Z,68.30
2019-02-14T12:25:11.619Z,68.81
2019-02-14T12:27:51.669Z,68.64
2019-02-14T12:30:34.169Z,67.68
2019-02-14T12:33:15.356Z,68.45
2019-02-14T12:35:53.258Z,67.14
2019-02-14T12:38:35.062Z,67.58
2019-02-14T12:41:13.757Z,68.75
2019-02-14T12:44:06.621Z,68.82
2019-02-14T12:46:51.514Z,68.52
2019-02-14T12:49:30.108Z,68.17
2019-02-14T12:52:11.239Z,68.94
2019-02-14T12:54:47.653Z,68.31
2019-02-14T12:57:30.343Z,67.30
2019-02-14T13:00:07.025Z,67.41
2019-02-14T13:02:41.191Z,67.75
2019-02-14T13:05:20.776Z,68.57
2019-02-14T13:07:58.888Z,68.48
2019-02-14T13:10:41.482Z,68.34
2019-02-14T13:13:14.120Z,68.32
2019-02-14T13:15:53.992Z,67.48
2019-02-14T13:18:30.062Z,67.95
2019-02-14T13:21:15.122Z,68.38
2019-02-14T13:23:56.217Z,67.26
2019-02-14T13:26:32.009Z,67.36
2019-02-14T13:29:11.506Z,68.42
2019-02-14T13:31:54.373Z,67.95
2019-02-14T13:34:31.668Z,67.74
2019-02-14T13:37:09.340Z,68.48
2019-02-14T13:39:47.133Z,67.86
2019-02-14T13:42:30.073Z,68.65
2019-02-14T13:45:08.443Z,68.04
2019-02-14T13:48:01.220Z,68.23
2019-02-14T13:50:44.515Z,67.80
2019-02-14T13:53:33.947Z,68.92
2019-02-14T13:56:08.010Z,68.90
2019-02-14T13:58:44.201Z,68.14
2019-02-14T14:01:16.800Z,67.56
2019-02-14T14:03:47.944Z,67.84
2019-02-14T14:06:41.199Z,68.27
2019-02-14T14:09:18.271Z,68.37
2019-02-14T14:11:56.830Z,68.15
2019-02-14T14:14:31.384Z,67.80
2019-02-14T14:17:04.201Z,67.20
2019-02-14T14:19:42.604Z,67.93
2019-02-14T14:22:14.886Z,65.98
2019-02-14T14:24:44.155Z,68.39
2019-02-14T14:27:16.035Z,67.07
2019-02-14T14:29:46.823Z,68.09
2019-02-14T14:32:18.959Z,67.45
2019-02-14T14:34:53.246Z,67.63
2019-02-14T14:37:25.401Z,67.01
2019-02-14T14:39:57.288Z,66.83
2019-02-14T14:42:39.337Z,67.18
2019-02-14T14:48:04.867Z,67.62
2019-02-14T14:50:37.974Z,66.33
2019-02-14T14:53:10.350Z,66.62
2019-02-14T14:55:42.532Z,66.13
2019-02-14T14:58:15.660Z,67.95
2019-02-14T15:00:47.853Z,67.91
2019-02-14T15:03:18.482Z,68.29
2019-02-14T15:05:55.246Z,67.87
2019-02-14T15:08:25.761Z,67.99
2019-02-14T15:10:57.390Z,68.07
2019-02-14T15:13:29.635Z,67.68
2019-02-14T15:16:01.223Z,67.90
2019-02-14T15:18:36.055Z,67.65
2019-02-14T15:21:10.579Z,67.67
2019-02-14T15:26:34.461Z,67.22
2019-02-14T15:29:11.296Z,68.05
2019-02-14T15:31:45.248Z,67.96
2019-02-14T15:34:20.251Z,68.04
2019-02-14T15:36:59.711Z,67.31
2019-02-14T15:39:36.154Z,68.22
2019-02-14T15:42:11.293Z,67.69
2019-02-14T15:44:51.989Z,68.30
2019-02-14T15:47:32.423Z,68.35
2019-02-14T15:50:09.428Z,68.05
2019-02-14T15:52:47.561Z,68.35
2019-02-14T15:55:24.327Z,68.67
2019-02-14T15:58:04.490Z,68.92
2019-02-14T16:00:46.792Z,68.92
2019-02-14T16:03:22.501Z,68.90
2019-02-14T16:05:56.996Z,69.04
2019-02-14T16:08:35.330Z,69.10
2019-02-14T16:11:14.295Z,68.99
2019-02-14T16:13:49.994Z,69.18
2019-02-14T16:16:28.935Z,69.26
2019-02-14T16:19:08.722Z,69.23
2019-02-14T16:21:44.808Z,69.32
2019-02-14T16:24:21.252Z,69.26
2019-02-14T16:26:59.240Z,69.39
2019-02-14T16:29:38.494Z,69.33
2019-02-14T16:32:14.337Z,69.44
2019-02-14T16:34:43.507Z,69.50
2019-02-14T16:37:13.169Z,69.59
2019-02-14T16:39:51.870Z,69.55
2019-02-14T16:42:39.028Z,69.67
2019-02-14T16:45:12.809Z,69.74
2019-02-14T16:47:51.377Z,69.79
2019-02-14T16:50:29.329Z,69.87
2019-02-14T16:53:24.151Z,69.92
2019-02-14T16:56:02.030Z,69.91
2019-02-14T16:58:39.581Z,69.96
2019-02-14T17:01:19.016Z,69.99
2019-02-14T17:03:54.294Z,70.07
2019-02-14T17:06:34.550Z,70.10
2019-02-14T17:09:08.422Z,70.21
2019-02-14T17:11:46.680Z,70.35
2019-02-14T17:14:24.497Z,70.41
2019-02-14T17:17:02.356Z,70.77
2019-02-14T17:19:40.887Z,70.91
2019-02-14T17:22:15.112Z,70.84
2019-02-14T17:24:50.067Z,71.11
2019-02-14T17:27:22.270Z,71.23
2019-02-14T17:30:01.618Z,71.26
2019-02-14T17:32:35.546Z,71.38
2019-02-14T17:35:07.893Z,71.42
2019-02-14T17:37:50.767Z,71.59
2019-02-14T17:40:31.971Z,71.69
2019-02-14T17:43:08.325Z,71.63
2019-02-14T17:45:40.979Z,71.57
2019-02-14T17:48:19.892Z,71.71
2019-02-14T17:50:54.017Z,71.87
2019-02-14T17:53:24.989Z,72.02
2019-02-14T17:56:05.793Z,72.03
2019-02-14T17:58:43.624Z,72.25
2019-02-14T18:01:17.595Z,72.41
2019-02-14T18:04:13.267Z,72.67
2019-02-14T18:07:06.888Z,72.37
2019-02-14T18:09:48.578Z,72.48
2019-02-14T18:12:27.888Z,73.17
2019-02-14T18:15:03.238Z,72.79
2019-02-14T18:17:45.420Z,72.67
2019-02-14T18:20:24.912Z,73.15
2019-02-14T18:22:55.448Z,73.88
2019-02-14T18:25:31.838Z,73.27
2019-02-14T18:28:10.700Z,73.66
2019-02-14T18:30:53.567Z,73.37
2019-02-14T18:33:36.479Z,73.65
2019-02-14T18:36:13.464Z,73.67
2019-02-14T18:38:53.665Z,74.53
2019-02-14T18:41:32.181Z,74.19
2019-02-14T18:44:29.223Z,74.78
2019-02-14T18:47:10.593Z,74.59
2019-02-14T18:49:48.157Z,74.49
2019-02-14T18:52:27.892Z,75.23
2019-02-14T18:55:05.673Z,74.99
2019-02-14T18:57:44.558Z,75.01
2019-02-14T19:00:25.824Z,75.09
2019-02-14T19:03:01.989Z,74.92
2019-02-14T19:05:40.958Z,74.58
2019-02-14T19:08:16.642Z,74.89
2019-02-14T19:10:49.404Z,74.87
2019-02-14T19:13:24.134Z,74.88
2019-02-14T19:15:53.302Z,74.72
2019-02-14T19:18:30.567Z,75.45
2019-02-14T19:21:10.023Z,75.47
2019-02-14T19:23:47.870Z,75.23
2019-02-14T19:26:25.018Z,75.21
2019-02-14T19:29:04.168Z,75.44
2019-02-14T19:31:45.742Z,75.19
2019-02-14T19:34:25.441Z,75.30
2019-02-14T19:36:54.400Z,75.72
2019-02-14T19:39:22.878Z,75.46
2019-02-14T19:41:51.373Z,75.48
2019-02-14T19:44:19.852Z,75.30
2019-02-14T19:46:50.030Z,75.64
2019-02-14T19:49:18.699Z,75.79
2019-02-14T19:51:47.181Z,75.97
2019-02-14T19:54:15.657Z,75.71
2019-02-14T19:56:44.187Z,75.91
2019-02-14T19:59:12.661Z,76.08
2019-02-14T20:01:41.155Z,76.00
2019-02-14T20:04:09.619Z,75.88
2019-02-14T20:06:38.108Z,75.83
2019-02-14T20:09:07.160Z,76.04
2019-02-14T20:11:37.102Z,75.91
2019-02-14T20:14:05.938Z,75.89
2019-02-14T20:16:34.452Z,76.55
2019-02-14T20:19:03.019Z,76.38
2019-02-14T20:21:31.476Z,76.21
2019-02-14T20:23:59.970Z,76.48
2019-02-14T20:26:28.441Z,76.50
2019-02-14T20:28:56.939Z,76.50
2019-02-14T20:31:25.421Z,76.31
2019-02-14T20:33:53.930Z,76.14
2019-02-14T20:36:22.411Z,76.33
2019-02-14T20:38:50.914Z,76.13
2019-02-14T20:41:19.407Z,76.28
2019-02-14T20:43:47.892Z,76.39
2019-02-14T20:46:16.353Z,76.54
2019-02-14T20:48:44.850Z,76.79
2019-02-14T20:51:13.333Z,77.25
2019-02-14T20:53:41.813Z,76.69
2019-02-14T20:56:10.296Z,76.59
2019-02-14T20:58:38.775Z,76.51
2019-02-14T21:01:08.881Z,76.45
2019-02-14T21:03:37.374Z,76.21
2019-02-14T21:06:05.951Z,76.06
2019-02-14T21:08:34.443Z,75.96
2019-02-14T21:11:02.909Z,75.91
2019-02-14T21:13:31.407Z,75.88
2019-02-14T21:15:59.874Z,75.97
2019-02-14T21:18:28.369Z,76.00
2019-02-14T21:20:56.840Z,75.95
2019-02-14T21:23:25.340Z,76.43
2019-02-14T21:25:54.876Z,76.25
2019-02-14T21:28:23.358Z,76.11
2019-02-14T21:30:51.846Z,76.51
2019-02-14T21:33:20.342Z,76.54
2019-02-14T21:35:48.796Z,76.51
2019-02-14T21:38:17.325Z,76.37
2019-02-14T21:40:45.806Z,76.69
2019-02-14T21:43:14.342Z,76.50
2019-02-14T21:45:42.829Z,76.54
2019-02-14T21:48:11.307Z,76.40
2019-02-14T21:50:39.805Z,77.18
2019-02-14T21:53:08.293Z,76.71
2019-02-14T21:55:36.833Z,76.77
2019-02-14T21:58:05.980Z,77.10
2019-02-14T22:00:34.959Z,77.62
2019-02-14T22:03:03.445Z,77.01
2019-02-14T22:05:32.006Z,77.74
2019-02-14T22:08:00.464Z,77.39
2019-02-14T22:10:28.954Z,77.66
2019-02-14T22:12:57.420Z,77.12
2019-02-14T22:15:28.314Z,77.08
2019-02-14T22:17:56.790Z,77.55
2019-02-14T22:20:25.260Z,77.43
2019-02-14T22:22:53.723Z,77.41
2019-02-14T22:25:22.225Z,77.86
2019-02-14T22:27:50.689Z,77.96
2019-02-14T22:30:19.183Z,77.75
2019-02-14T22:32:47.673Z,78.16
2019-02-14T22:35:16.341Z,77.86
2019-02-14T22:37:44.975Z,77.81
2019-02-14T22:40:14.310Z,78.44
2019-02-14T22:42:46.962Z,78.14
2019-02-14T22:45:15.294Z,78.68
2019-02-14T22:47:44.950Z,78.45
2019-02-14T22:50:13.897Z,79.02
2019-02-14T22:52:42.369Z,78.60
2019-02-14T22:55:14.353Z,78.51
2019-02-14T22:57:42.797Z,78.62
2019-02-14T23:00:34.104Z,78.71
2019-02-14T23:03:02.592Z,78.80
2019-02-14T23:05:31.069Z,79.49
2019-02-14T23:07:59.544Z,79.48
2019-02-14T23:10:28.211Z,79.00
2019-02-14T23:12:56.711Z,79.12
2019-02-14T23:15:25.198Z,78.98
2019-02-14T23:17:53.672Z,78.81
2019-02-14T23:20:22.163Z,79.07
2019-02-14T23:22:50.640Z,78.95
2019-02-14T23:25:19.135Z,78.98
2019-02-14T23:27:47.643Z,79.82
2019-02-14T23:30:16.112Z,79.93
2019-02-14T23:32:44.578Z,80.01
2019-02-14T23:35:13.136Z,79.56
2019-02-14T23:37:41.575Z,79.84
2019-02-14T23:40:10.129Z,80.05
2019-02-14T23:42:38.612Z,79.65
2019-02-14T23:45:09.546Z,80.14
2019-02-14T23:47:38.018Z,80.44
2019-02-14T23:50:08.841Z,80.33
2019-02-14T23:52:37.312Z,80.17
2019-02-14T23:55:07.438Z,80.10
2019-02-14T23:57:35.906Z,79.80
